Seattle, WA (98121)

6:51 AM PST on February 14, 2016 (GMT -0800)
Herrera, Inc. | | Change Station
CLOSE
Current Station
Personal Weather Station
Location: Seattle, WA
Elevation: 121 ft
Nearby Weather Stations

Elev 121 ft 47.62 °N, 122.34 °W | Updated 62 days ago

Cloudy
Cloudy
50 °F
Feels Like 50 °F
N
6
Wind Variable Wind from SSE
Gusts 10 mph

Today
High -- | Low -- °F
--% Chance of Precip.
Yesterday
High -- | Low -- °F
Precip. -- in
Pressure 30.13 in
Visibility 8.0 miles
Clouds Overcast 2200 ft
Dew Point 48 °F
Humidity 93%
Rainfall in
Snow Depth Not available.
7:17 AM 5:30 PM
Waxing Crescent, 42% visible
METAR KRNT 141353Z AUTO 12004KT 8SM -RA OVC022 11/08 A3011 RMK AO2 SLP201 P0000 T01060083
Pressure 30.13 in
Visibility 8.0 miles
Clouds Overcast 2200 ft
Dew Point 48 °F
Humidity 93%
Rainfall in
Snow Depth Not available.
7:17 AM 5:30 PM
Waxing Crescent, 42% visible
METAR KRNT 141353Z AUTO 12004KT 8SM -RA OVC022 11/08 A3011 RMK AO2 SLP201 P0000 T01060083

10-Day Weather Forecast

Almanac

Astronomy

Feb. 14, 2016 Rise Set
Actual Time
Civil Twilight
Nautical Twilight
Astronomical Twilight
Moon
Length of Visible Light
Length of Day
Tomorrow will be .
, % of the Moon is Illuminated

Today's Extremes

State Highs State Lows

Community

WunderPhotos

Upload Photos

1,892,781 photos uploaded!

WunderBlog® & News

Nearby

Air Quality

  Air Quality AQ Index Pollutant
Not available.

Snow Depth

Station Depth Elevation

Earthquake Activity

City Distance Mag. Time & Date
Minimum magnitude displayed is 2.5.

Coastal Water Temperatures

Place Temperature

Stations

Nearby Weather Stations

Station Location Temp. Windchill Dew Point Humidity Wind Precip. Elev Updated Type
                   

Watches & Warnings

There are currently no watches in effect.